createdAt,value
2023-05-22T00:00:07.796Z,17.83
2023-05-22T00:02:43.439Z,17.73
2023-05-22T00:05:13.405Z,17.70
2023-05-22T00:07:43.618Z,17.61
2023-05-22T00:10:11.605Z,17.62
2023-05-22T00:12:39.690Z,17.55
2023-05-22T00:15:11.589Z,17.53
2023-05-22T00:17:39.632Z,17.51
2023-05-22T00:20:10.923Z,17.34
2023-05-22T00:22:38.618Z,17.36
2023-05-22T00:25:08.148Z,17.33
2023-05-22T00:27:35.620Z,17.39
2023-05-22T00:30:03.758Z,17.32
2023-05-22T00:32:32.219Z,17.26
2023-05-22T00:34:59.785Z,17.23
2023-05-22T00:37:27.487Z,17.20
2023-05-22T00:39:54.849Z,17.20
2023-05-22T00:42:22.975Z,17.21
2023-05-22T00:44:50.608Z,17.20
2023-05-22T00:47:18.001Z,17.19
2023-05-22T00:49:46.402Z,17.17
2023-05-22T00:52:14.694Z,17.05
2023-05-22T00:54:43.455Z,17.14
2023-05-22T00:57:11.337Z,17.09
2023-05-22T00:59:39.168Z,16.92
2023-05-22T01:02:07.172Z,16.97
2023-05-22T01:04:35.439Z,16.93
2023-05-22T01:07:03.298Z,16.94
2023-05-22T01:09:30.899Z,16.94
2023-05-22T01:12:19.368Z,17.02
2023-05-22T01:15:09.350Z,16.87
2023-05-22T01:18:04.712Z,16.88
2023-05-22T01:20:37.015Z,16.86
2023-05-22T01:23:29.674Z,16.88
2023-05-22T01:26:14.508Z,16.88
2023-05-22T01:29:02.751Z,16.98
2023-05-22T01:31:33.051Z,16.88
2023-05-22T01:34:02.727Z,16.75
2023-05-22T01:36:35.150Z,16.59
2023-05-22T01:39:06.341Z,16.76
2023-05-22T01:41:35.546Z,16.72
2023-05-22T01:44:03.456Z,16.82
2023-05-22T01:46:31.709Z,16.79
2023-05-22T01:48:59.666Z,16.81
2023-05-22T01:51:36.828Z,16.88
2023-05-22T01:54:20.207Z,16.82
2023-05-22T01:56:55.897Z,16.82
2023-05-22T01:59:48.717Z,16.74
2023-05-22T02:02:19.712Z,16.59
2023-05-22T02:04:52.060Z,16.68
2023-05-22T02:07:22.399Z,16.70
2023-05-22T02:09:52.997Z,16.76
2023-05-22T02:12:21.634Z,16.69
2023-05-22T02:14:49.492Z,16.65
2023-05-22T02:17:20.457Z,16.54
2023-05-22T02:19:48.138Z,16.52
2023-05-22T02:22:15.629Z,16.58
2023-05-22T02:24:47.060Z,16.65
2023-05-22T02:27:14.629Z,16.59
2023-05-22T02:32:33.608Z,16.36
2023-05-22T02:35:01.356Z,16.53
2023-05-22T02:37:29.174Z,16.60
2023-05-22T02:39:57.523Z,16.57
2023-05-22T02:42:24.981Z,16.50
2023-05-22T02:44:52.481Z,16.47
2023-05-22T02:47:20.016Z,16.49
2023-05-22T02:49:47.820Z,16.57
2023-05-22T02:52:15.471Z,16.55
2023-05-22T02:54:43.245Z,16.53
2023-05-22T02:57:10.809Z,16.66
2023-05-22T02:59:38.853Z,16.74
2023-05-22T03:02:06.419Z,16.67
2023-05-22T03:04:34.246Z,16.59
2023-05-22T03:07:01.836Z,16.63
2023-05-22T03:09:29.522Z,16.63
2023-05-22T03:11:56.966Z,16.66
2023-05-22T03:14:24.459Z,16.69
2023-05-22T03:16:52.165Z,16.72
2023-05-22T03:19:19.769Z,16.80
2023-05-22T03:21:48.577Z,16.76
2023-05-22T03:24:17.111Z,16.76
2023-05-22T03:26:44.562Z,16.84
2023-05-22T03:29:12.019Z,16.79
2023-05-22T03:31:39.490Z,16.83
2023-05-22T03:34:07.570Z,16.75
2023-05-22T03:36:35.548Z,16.86
2023-05-22T03:39:04.538Z,16.87
2023-05-22T03:41:31.930Z,16.90
2023-05-22T03:43:59.395Z,16.96
2023-05-22T03:46:27.365Z,16.95
2023-05-22T03:48:54.979Z,16.92
2023-05-22T03:51:22.360Z,17.02
2023-05-22T03:53:50.037Z,16.94
2023-05-22T03:56:17.397Z,17.01
2023-05-22T03:58:45.716Z,16.93
2023-05-22T04:01:13.818Z,16.98
2023-05-22T04:03:41.569Z,16.99
2023-05-22T04:06:09.200Z,17.04
2023-05-22T04:08:37.159Z,17.01
2023-05-22T04:11:05.483Z,16.99
2023-05-22T04:13:33.323Z,17.06
2023-05-22T04:16:02.210Z,16.99
2023-05-22T04:18:29.970Z,17.01
2023-05-22T04:20:57.637Z,16.94
2023-05-22T04:23:26.244Z,17.06
2023-05-22T04:25:53.641Z,16.78
2023-05-22T04:28:23.980Z,16.98
2023-05-22T04:30:51.415Z,17.05
2023-05-22T04:33:19.091Z,17.24
2023-05-22T04:35:46.510Z,17.25
2023-05-22T04:38:14.196Z,17.28
2023-05-22T04:40:41.927Z,17.23
2023-05-22T04:43:09.592Z,17.29
2023-05-22T04:45:37.441Z,17.28
2023-05-22T04:48:05.282Z,17.31
2023-05-22T04:50:32.990Z,17.41
2023-05-22T04:53:00.517Z,17.47
2023-05-22T04:55:27.912Z,17.50
2023-05-22T04:57:56.482Z,17.47
2023-05-22T05:00:26.714Z,17.54
2023-05-22T05:02:54.198Z,17.56
2023-05-22T05:05:21.969Z,17.55
2023-05-22T05:07:50.506Z,17.67
2023-05-22T05:10:18.329Z,17.66
2023-05-22T05:12:45.917Z,17.70
2023-05-22T05:15:13.692Z,17.70
2023-05-22T05:17:41.844Z,17.65
2023-05-22T05:20:10.579Z,17.63
2023-05-22T05:22:40.316Z,17.64
2023-05-22T05:25:10.137Z,17.76
2023-05-22T05:27:39.007Z,17.75
2023-05-22T05:30:07.146Z,17.69
2023-05-22T05:32:34.886Z,17.77
2023-05-22T05:35:02.713Z,17.77
2023-05-22T05:37:30.678Z,17.77
2023-05-22T05:39:58.326Z,17.75
2023-05-22T05:42:26.046Z,17.78
2023-05-22T05:44:53.493Z,17.83
2023-05-22T05:47:24.139Z,17.92
2023-05-22T05:49:51.820Z,17.91
2023-05-22T05:52:19.223Z,17.78
2023-05-22T05:54:48.218Z,17.91
2023-05-22T05:57:15.760Z,18.08
2023-05-22T05:59:43.403Z,18.09
2023-05-22T06:02:10.921Z,18.24
2023-05-22T06:04:39.363Z,18.36
2023-05-22T06:07:07.162Z,18.39
2023-05-22T06:09:35.023Z,18.44
2023-05-22T06:12:02.455Z,18.63
2023-05-22T06:14:30.779Z,18.64
2023-05-22T06:16:58.438Z,18.72
2023-05-22T06:19:26.173Z,18.79
2023-05-22T06:21:53.741Z,18.91
2023-05-22T06:24:21.162Z,18.81
2023-05-22T06:26:48.911Z,19.01
2023-05-22T06:29:16.325Z,19.08
2023-05-22T06:31:44.419Z,19.26
2023-05-22T06:34:11.996Z,19.25
2023-05-22T06:36:39.618Z,19.23
2023-05-22T06:39:07.069Z,19.35
2023-05-22T06:41:35.727Z,19.62
2023-05-22T06:44:03.171Z,19.74
2023-05-22T06:46:31.185Z,19.87
2023-05-22T06:48:58.643Z,19.77
2023-05-22T06:51:26.511Z,19.84
2023-05-22T06:53:54.008Z,19.91
2023-05-22T06:56:22.701Z,19.99
2023-05-22T06:58:50.392Z,20.04
2023-05-22T07:01:17.796Z,20.13
2023-05-22T07:03:45.231Z,20.11
2023-05-22T07:06:13.572Z,20.22
2023-05-22T07:08:41.098Z,20.11
2023-05-22T07:11:08.832Z,20.21
2023-05-22T07:13:36.615Z,20.25
2023-05-22T07:16:04.537Z,20.30
2023-05-22T07:18:32.179Z,20.32
2023-05-22T07:20:59.608Z,20.38
2023-05-22T07:23:27.137Z,20.40
2023-05-22T07:25:54.686Z,20.57
2023-05-22T07:28:22.203Z,20.70
2023-05-22T07:30:49.743Z,20.80
2023-05-22T07:33:17.290Z,20.93
2023-05-22T07:35:45.785Z,20.99
2023-05-22T07:38:13.220Z,21.15
2023-05-22T07:40:41.100Z,21.09
2023-05-22T07:43:08.680Z,21.08
2023-05-22T07:45:39.683Z,21.08
2023-05-22T07:48:07.415Z,21.15
2023-05-22T07:50:34.861Z,21.19
2023-05-22T07:53:02.446Z,21.19
2023-05-22T07:55:29.976Z,21.32
2023-05-22T07:57:57.487Z,21.30
2023-05-22T08:00:25.725Z,21.36
2023-05-22T08:02:53.329Z,21.33
2023-05-22T08:05:20.980Z,21.50
2023-05-22T08:07:48.665Z,21.54
2023-05-22T08:10:17.876Z,21.67
2023-05-22T08:12:46.067Z,21.66
2023-05-22T08:15:13.714Z,21.68
2023-05-22T08:17:41.441Z,21.66
2023-05-22T08:20:09.641Z,21.88
2023-05-22T08:22:39.330Z,22.02
2023-05-22T08:25:07.081Z,22.01
2023-05-22T08:27:34.699Z,22.14
2023-05-22T08:30:04.521Z,22.40
2023-05-22T08:32:34.440Z,22.57
2023-05-22T08:35:02.807Z,22.81
2023-05-22T08:37:30.910Z,22.94
2023-05-22T08:39:58.443Z,23.10
2023-05-22T08:42:25.977Z,23.35
2023-05-22T08:44:55.568Z,23.59
2023-05-22T08:47:26.145Z,23.60
2023-05-22T08:50:05.574Z,23.63
2023-05-22T08:52:38.531Z,23.58
2023-05-22T08:55:07.186Z,23.62
2023-05-22T08:57:35.732Z,23.63
2023-05-22T09:00:04.097Z,23.78
2023-05-22T09:02:33.295Z,24.06
2023-05-22T09:05:02.203Z,24.14
2023-05-22T09:07:30.441Z,24.01
2023-05-22T09:09:57.937Z,23.96
2023-05-22T09:12:27.222Z,23.98
2023-05-22T09:14:58.805Z,24.03
2023-05-22T09:17:26.678Z,23.85
2023-05-22T09:19:54.288Z,23.82
2023-05-22T09:22:24.292Z,23.88
2023-05-22T09:24:52.544Z,23.84
2023-05-22T09:27:23.416Z,24.10
2023-05-22T09:29:53.426Z,24.10
2023-05-22T09:32:21.831Z,24.09
2023-05-22T09:34:52.926Z,24.30
2023-05-22T09:37:20.533Z,24.40
2023-05-22T09:39:48.419Z,24.48
2023-05-22T09:42:17.859Z,24.61
2023-05-22T09:44:49.564Z,24.84
2023-05-22T09:47:17.544Z,24.95
2023-05-22T09:49:45.880Z,25.11
2023-05-22T09:52:13.334Z,25.13
2023-05-22T09:54:47.221Z,25.23
2023-05-22T09:57:18.897Z,25.12
2023-05-22T09:59:54.479Z,25.09
2023-05-22T10:02:26.805Z,24.95
2023-05-22T10:04:57.483Z,25.13
2023-05-22T10:07:32.626Z,25.21
2023-05-22T10:10:04.911Z,25.22
2023-05-22T10:12:35.755Z,25.20
2023-05-22T10:15:07.464Z,25.05
2023-05-22T10:17:36.977Z,25.01
2023-05-22T10:20:08.064Z,25.19
2023-05-22T10:22:38.980Z,25.29
2023-05-22T10:25:09.873Z,25.45
2023-05-22T10:27:40.087Z,25.70
2023-05-22T10:30:34.970Z,25.87
2023-05-22T10:33:14.868Z,26.18
2023-05-22T10:36:04.088Z,26.20
2023-05-22T10:38:49.983Z,26.25
2023-05-22T10:41:18.522Z,26.32
2023-05-22T10:43:49.969Z,26.35
2023-05-22T10:46:18.256Z,26.21
2023-05-22T10:48:49.870Z,26.11
2023-05-22T10:51:22.246Z,26.27
2023-05-22T10:54:02.408Z,26.31
2023-05-22T10:56:35.564Z,26.25
2023-05-22T10:59:08.532Z,26.27
2023-05-22T11:01:38.756Z,26.24
2023-05-22T11:04:07.125Z,26.31
2023-05-22T11:06:42.406Z,26.37
2023-05-22T11:09:31.375Z,26.06
2023-05-22T11:12:17.318Z,25.93
2023-05-22T11:15:06.286Z,25.75
2023-05-22T11:17:40.340Z,25.47
2023-05-22T11:20:24.932Z,25.47
2023-05-22T11:23:05.419Z,25.53
2023-05-22T11:25:38.296Z,25.39
2023-05-22T11:28:06.644Z,25.38
2023-05-22T11:30:34.945Z,25.30
2023-05-22T11:33:06.768Z,25.48
2023-05-22T11:35:35.718Z,25.45
2023-05-22T11:38:05.971Z,25.49
2023-05-22T11:40:34.270Z,25.44
2023-05-22T11:43:02.354Z,25.45
2023-05-22T11:45:30.110Z,25.98
2023-05-22T11:47:57.945Z,26.39
2023-05-22T11:50:41.056Z,26.99
2023-05-22T11:53:09.986Z,27.41
2023-05-22T11:55:37.504Z,27.35
2023-05-22T11:58:04.628Z,26.85
2023-05-22T12:00:32.069Z,26.69
2023-05-22T12:02:59.510Z,26.62
2023-05-22T12:05:26.937Z,26.24
2023-05-22T12:07:54.882Z,26.09
2023-05-22T12:10:25.958Z,26.07
2023-05-22T12:12:54.777Z,25.90
2023-05-22T12:15:21.797Z,25.47
2023-05-22T12:17:49.039Z,25.54
2023-05-22T12:20:16.081Z,25.55
2023-05-22T12:22:44.045Z,25.40
2023-05-22T12:25:24.992Z,25.28
2023-05-22T12:27:52.102Z,25.21
2023-05-22T12:30:19.798Z,25.09
2023-05-22T12:32:49.274Z,24.98
2023-05-22T12:35:17.418Z,24.89
2023-05-22T12:37:51.685Z,24.79
2023-05-22T12:40:19.473Z,24.74
2023-05-22T12:42:48.523Z,24.67
2023-05-22T12:45:17.860Z,24.66
2023-05-22T12:47:45.593Z,24.61
2023-05-22T12:50:12.789Z,24.53
2023-05-22T12:52:40.515Z,24.44
2023-05-22T12:55:09.631Z,24.53
2023-05-22T12:57:37.153Z,24.42
2023-05-22T13:00:06.037Z,24.27
2023-05-22T13:02:34.333Z,24.14
2023-05-22T13:05:01.564Z,24.10
2023-05-22T13:07:28.714Z,23.83
2023-05-22T13:09:55.907Z,23.83
2023-05-22T13:12:23.687Z,23.51
2023-05-22T13:14:51.085Z,23.34
2023-05-22T13:17:18.161Z,23.02
2023-05-22T13:19:45.440Z,22.98
2023-05-22T13:22:12.880Z,22.85
2023-05-22T13:24:39.885Z,22.72
2023-05-22T13:27:07.426Z,22.60
2023-05-22T13:29:35.078Z,22.65
2023-05-22T13:32:02.589Z,22.65
2023-05-22T13:34:30.626Z,22.70
2023-05-22T13:36:57.842Z,22.70
2023-05-22T13:39:24.868Z,22.72
2023-05-22T13:41:53.320Z,22.76
2023-05-22T13:44:21.363Z,22.75
2023-05-22T13:46:49.157Z,22.70
2023-05-22T13:49:16.534Z,22.65
2023-05-22T13:51:43.730Z,22.67
2023-05-22T13:54:11.249Z,22.64
2023-05-22T13:56:38.278Z,22.61
2023-05-22T13:59:07.121Z,22.70
2023-05-22T14:01:36.470Z,22.70
2023-05-22T14:04:04.425Z,22.67
2023-05-22T14:06:31.801Z,22.73
2023-05-22T14:08:59.772Z,22.65
2023-05-22T14:11:27.934Z,22.69
2023-05-22T14:13:54.991Z,22.74
2023-05-22T14:16:22.742Z,22.77
2023-05-22T14:18:50.272Z,22.67
2023-05-22T14:21:19.044Z,22.80
2023-05-22T14:23:46.284Z,22.88
2023-05-22T14:26:14.389Z,22.82
2023-05-22T14:28:41.990Z,22.93
2023-05-22T14:31:09.348Z,22.88
2023-05-22T14:33:36.626Z,22.96
2023-05-22T14:36:03.974Z,22.96
2023-05-22T14:38:34.875Z,22.94
2023-05-22T14:41:02.378Z,22.95
2023-05-22T14:43:29.823Z,22.96
2023-05-22T14:45:58.230Z,23.04
2023-05-22T14:48:26.696Z,23.11
2023-05-22T14:50:53.999Z,23.00
2023-05-22T14:53:23.340Z,23.05
2023-05-22T14:55:50.449Z,23.04
2023-05-22T14:58:17.704Z,22.99
2023-05-22T15:00:47.164Z,23.03
2023-05-22T15:03:14.531Z,23.14
2023-05-22T15:05:41.904Z,23.16
2023-05-22T15:08:09.309Z,23.17
2023-05-22T15:10:36.996Z,23.20
2023-05-22T15:13:04.445Z,23.23
2023-05-22T15:15:31.680Z,23.28
2023-05-22T15:18:02.701Z,23.31
2023-05-22T15:20:31.150Z,23.39
2023-05-22T15:22:59.678Z,23.33
2023-05-22T15:25:26.781Z,23.38
2023-05-22T15:27:53.942Z,23.33
2023-05-22T15:30:23.081Z,23.34
2023-05-22T15:32:50.312Z,23.39
2023-05-22T15:35:17.546Z,23.45
2023-05-22T15:37:44.930Z,23.45
2023-05-22T15:40:16.422Z,23.46
2023-05-22T15:42:44.740Z,23.41
2023-05-22T15:45:11.983Z,23.39
2023-05-22T15:47:39.393Z,23.36
2023-05-22T15:50:07.146Z,23.31
2023-05-22T15:52:34.836Z,23.31
2023-05-22T15:55:02.309Z,23.25
2023-05-22T15:57:29.999Z,23.17
2023-05-22T15:59:57.515Z,23.09
2023-05-22T16:02:25.598Z,23.10
2023-05-22T16:04:52.822Z,23.09
2023-05-22T16:07:20.332Z,23.06
2023-05-22T16:09:47.548Z,23.01
2023-05-22T16:12:14.653Z,22.95
2023-05-22T16:14:42.266Z,22.88
2023-05-22T16:17:09.601Z,22.82
2023-05-22T16:19:36.780Z,22.81
2023-05-22T16:22:04.447Z,22.77
2023-05-22T16:24:31.928Z,22.82
2023-05-22T16:26:59.855Z,22.76
2023-05-22T16:29:27.020Z,22.79
2023-05-22T16:31:54.343Z,22.81
2023-05-22T16:34:21.492Z,22.77
2023-05-22T16:36:48.576Z,22.73
2023-05-22T16:39:18.468Z,22.78
2023-05-22T16:41:45.860Z,22.75
2023-05-22T16:44:13.038Z,22.79
2023-05-22T16:46:40.368Z,22.81
2023-05-22T16:49:07.594Z,22.76
2023-05-22T16:51:34.996Z,22.78
2023-05-22T16:54:02.169Z,22.66
2023-05-22T16:56:32.861Z,22.74
2023-05-22T16:59:00.596Z,22.68
2023-05-22T17:01:27.882Z,22.66
2023-05-22T17:03:55.380Z,22.66
2023-05-22T17:06:22.979Z,22.69
2023-05-22T17:08:51.080Z,22.67
2023-05-22T17:11:18.407Z,22.61
2023-05-22T17:13:47.116Z,22.50
2023-05-22T17:16:14.302Z,22.49
2023-05-22T17:18:41.590Z,22.42
2023-05-22T17:21:11.700Z,22.40
2023-05-22T17:23:39.057Z,22.49
2023-05-22T17:26:06.269Z,22.46
2023-05-22T17:28:33.735Z,22.40
2023-05-22T17:31:00.871Z,22.27
2023-05-22T17:33:28.062Z,22.32
2023-05-22T17:35:55.307Z,22.29
2023-05-22T17:38:22.672Z,22.31
2023-05-22T17:40:50.195Z,22.30
2023-05-22T17:43:19.164Z,22.21
2023-05-22T17:45:53.021Z,22.24
2023-05-22T17:48:29.298Z,22.27
2023-05-22T17:50:56.446Z,22.28
2023-05-22T17:53:23.571Z,22.11
2023-05-22T17:55:52.666Z,22.07
2023-05-22T17:58:21.050Z,22.03
2023-05-22T18:00:50.896Z,22.01
2023-05-22T18:03:22.039Z,21.95
2023-05-22T18:05:50.116Z,21.83
2023-05-22T18:08:18.525Z,21.81
2023-05-22T18:10:47.388Z,21.83
2023-05-22T18:13:14.539Z,21.62
2023-05-22T18:15:41.732Z,21.68
2023-05-22T18:18:11.368Z,21.45
2023-05-22T18:20:40.278Z,21.51
2023-05-22T18:23:07.930Z,21.27
2023-05-22T18:25:35.133Z,21.28
2023-05-22T18:28:02.395Z,21.24
2023-05-22T18:30:29.700Z,21.26
2023-05-22T18:32:57.284Z,21.31
2023-05-22T18:35:24.499Z,21.30
2023-05-22T18:37:51.808Z,21.31
2023-05-22T18:40:19.118Z,21.27
2023-05-22T18:42:46.634Z,21.21
2023-05-22T18:45:14.438Z,21.19
2023-05-22T18:47:42.275Z,21.02
2023-05-22T18:50:10.109Z,21.06
2023-05-22T18:52:38.030Z,21.09
2023-05-22T18:55:05.935Z,21.05
2023-05-22T18:57:33.389Z,21.05
2023-05-22T19:00:00.666Z,21.03
2023-05-22T19:02:28.000Z,20.92
2023-05-22T19:04:55.430Z,20.86
2023-05-22T19:07:22.604Z,20.88
2023-05-22T19:09:49.923Z,20.67
2023-05-22T19:12:17.317Z,20.57
2023-05-22T19:14:44.858Z,20.51
2023-05-22T19:17:12.744Z,20.43
2023-05-22T19:19:40.075Z,20.56
2023-05-22T19:22:07.392Z,20.48
2023-05-22T19:24:34.627Z,20.46
2023-05-22T19:27:02.145Z,20.43
2023-05-22T19:29:29.605Z,20.51
2023-05-22T19:31:57.182Z,20.59
2023-05-22T19:34:24.726Z,20.58
2023-05-22T19:36:52.303Z,20.62
2023-05-22T19:39:19.561Z,20.69
2023-05-22T19:41:47.587Z,20.74
2023-05-22T19:44:14.770Z,20.63
2023-05-22T19:46:42.346Z,20.65
2023-05-22T19:49:09.893Z,20.63
2023-05-22T19:51:37.489Z,20.47
2023-05-22T19:54:05.148Z,20.43
2023-05-22T19:56:32.610Z,20.42
2023-05-22T19:58:59.929Z,20.39
2023-05-22T20:01:27.249Z,20.30
2023-05-22T20:03:56.356Z,20.24
2023-05-22T20:06:24.911Z,20.33
2023-05-22T20:08:52.156Z,20.24
2023-05-22T20:11:19.573Z,20.20
2023-05-22T20:13:46.928Z,20.26
2023-05-22T20:16:16.014Z,20.29
2023-05-22T20:18:44.581Z,20.33
2023-05-22T20:21:12.077Z,20.31
2023-05-22T20:23:40.052Z,20.40
2023-05-22T20:26:07.215Z,20.48
2023-05-22T20:28:34.761Z,20.45
2023-05-22T20:31:02.013Z,20.55
2023-05-22T20:33:29.463Z,20.45
2023-05-22T20:35:56.673Z,20.46
2023-05-22T20:38:23.862Z,20.51
2023-05-22T20:40:52.080Z,20.47
2023-05-22T20:43:20.292Z,20.39
2023-05-22T20:45:47.429Z,20.34
2023-05-22T20:48:14.829Z,20.46
2023-05-22T20:50:42.382Z,20.42
2023-05-22T20:53:09.502Z,20.36
2023-05-22T20:55:37.211Z,20.27
2023-05-22T20:58:04.465Z,20.22
2023-05-22T21:00:31.794Z,20.26
2023-05-22T21:03:01.236Z,20.10
2023-05-22T21:05:28.413Z,20.12
2023-05-22T21:07:57.966Z,20.12
2023-05-22T21:10:25.329Z,20.06
2023-05-22T21:12:52.532Z,20.05
2023-05-22T21:15:19.716Z,19.80
2023-05-22T21:17:48.182Z,19.92
2023-05-22T21:20:15.286Z,19.90
2023-05-22T21:22:42.501Z,19.94
2023-05-22T21:25:09.918Z,19.67
2023-05-22T21:27:37.180Z,19.76
2023-05-22T21:30:04.412Z,19.66
2023-05-22T21:32:34.215Z,19.56
2023-05-22T21:35:01.652Z,19.49
2023-05-22T21:37:29.228Z,19.55
2023-05-22T21:39:56.232Z,19.43
2023-05-22T21:42:25.946Z,19.43
2023-05-22T21:44:53.511Z,19.39
2023-05-22T21:47:20.603Z,19.37
2023-05-22T21:49:47.608Z,19.34
2023-05-22T21:52:16.011Z,19.33
2023-05-22T21:54:43.176Z,19.23
2023-05-22T21:57:10.435Z,19.23
2023-05-22T21:59:39.366Z,19.21
2023-05-22T22:02:06.702Z,19.17
2023-05-22T22:04:34.220Z,19.08
2023-05-22T22:07:01.247Z,19.15
2023-05-22T22:09:28.252Z,19.17
2023-05-22T22:11:55.350Z,19.09
2023-05-22T22:14:23.841Z,19.03
2023-05-22T22:16:54.357Z,18.96
2023-05-22T22:19:25.439Z,18.94
2023-05-22T22:21:53.112Z,18.91
2023-05-22T22:24:21.733Z,18.92
2023-05-22T22:26:49.395Z,18.92
2023-05-22T22:29:16.657Z,18.92
2023-05-22T22:31:45.001Z,18.94
2023-05-22T22:34:12.149Z,18.90
2023-05-22T22:36:40.173Z,18.92
2023-05-22T22:39:07.405Z,19.08
2023-05-22T22:41:34.941Z,19.03
2023-05-22T22:44:02.013Z,18.86
2023-05-22T22:46:29.395Z,18.91
2023-05-22T22:48:56.669Z,18.94
2023-05-22T22:51:24.720Z,18.89
2023-05-22T22:53:51.772Z,18.88
2023-05-22T22:56:18.920Z,18.83
2023-05-22T22:58:46.060Z,18.85
2023-05-22T23:01:13.106Z,18.69
2023-05-22T23:03:41.436Z,18.66
2023-05-22T23:06:09.597Z,18.62
2023-05-22T23:08:36.801Z,18.59
2023-05-22T23:11:04.366Z,18.56
2023-05-22T23:13:31.797Z,18.54
2023-05-22T23:15:58.896Z,18.46
2023-05-22T23:18:26.061Z,18.35
2023-05-22T23:20:53.807Z,18.36
2023-05-22T23:23:20.953Z,18.33
2023-05-22T23:25:48.070Z,18.28
2023-05-22T23:28:15.176Z,18.34
2023-05-22T23:30:42.256Z,18.37
2023-05-22T23:33:09.330Z,18.32
2023-05-22T23:35:36.386Z,18.40
2023-05-22T23:38:03.430Z,18.35
2023-05-22T23:40:30.470Z,18.31
2023-05-22T23:42:57.596Z,18.25
2023-05-22T23:45:24.667Z,18.20
2023-05-22T23:47:51.991Z,18.16
2023-05-22T23:50:19.219Z,18.16
2023-05-22T23:52:48.236Z,18.26
2023-05-22T23:55:15.784Z,18.21
2023-05-22T23:57:42.896Z,18.18
